createdAt,value
2017-09-16T00:00:06.985Z,81.80
2017-09-16T00:02:34.585Z,82.30
2017-09-16T00:05:02.145Z,81.60
2017-09-16T00:07:29.702Z,80.60
2017-09-16T00:09:57.298Z,80.40
2017-09-16T00:12:24.897Z,79.80
2017-09-16T00:14:52.483Z,79.60
2017-09-16T00:17:20.837Z,78.80
2017-09-16T00:19:48.462Z,78.80
2017-09-16T00:22:16.043Z,80.40
2017-09-16T00:24:43.599Z,78.20
2017-09-16T00:27:11.209Z,78.00
2017-09-16T00:29:39.537Z,78.10
2017-09-16T00:32:07.109Z,78.00
2017-09-16T00:34:34.698Z,78.80
2017-09-16T00:37:03.027Z,80.10
2017-09-16T00:39:30.629Z,80.10
2017-09-16T00:41:58.967Z,79.50
2017-09-16T00:44:26.524Z,79.40
2017-09-16T00:46:54.114Z,79.80
2017-09-16T00:49:21.710Z,81.00
2017-09-16T00:51:49.270Z,80.30
2017-09-16T00:54:16.817Z,79.60
2017-09-16T00:56:45.200Z,78.60
2017-09-16T00:59:13.534Z,78.60
2017-09-16T01:01:41.091Z,78.60
2017-09-16T01:04:08.686Z,78.70
2017-09-16T01:06:37.009Z,77.60
2017-09-16T01:09:04.611Z,77.60
2017-09-16T01:11:32.178Z,77.20
2017-09-16T01:13:59.789Z,79.20
2017-09-16T01:16:27.366Z,81.00
2017-09-16T01:18:54.944Z,80.90
2017-09-16T01:21:22.563Z,80.20
2017-09-16T01:23:50.140Z,80.00
2017-09-16T01:26:17.702Z,79.30
2017-09-16T01:28:45.298Z,79.30
2017-09-16T01:31:12.846Z,80.00
2017-09-16T01:33:40.400Z,79.50
2017-09-16T01:36:07.992Z,79.30
2017-09-16T01:38:36.309Z,80.00
2017-09-16T01:41:03.970Z,80.00
2017-09-16T01:43:31.525Z,79.70
2017-09-16T01:45:59.085Z,79.50
2017-09-16T01:48:26.681Z,79.40
2017-09-16T01:50:54.247Z,79.20
2017-09-16T01:53:21.801Z,79.70
2017-09-16T01:55:49.418Z,79.50
2017-09-16T01:58:17.002Z,79.50
2017-09-16T02:00:44.554Z,79.60
2017-09-16T02:03:12.157Z,79.80
2017-09-16T02:05:39.781Z,80.20
2017-09-16T02:08:07.370Z,80.00
2017-09-16T02:10:34.905Z,80.50
2017-09-16T02:13:02.506Z,79.80
2017-09-16T02:15:30.888Z,81.00
2017-09-16T02:17:58.442Z,81.00
2017-09-16T02:20:26.045Z,80.50
2017-09-16T02:22:54.364Z,79.80
2017-09-16T02:25:21.965Z,79.80
2017-09-16T02:27:50.381Z,80.50
2017-09-16T02:30:17.925Z,80.50
2017-09-16T02:32:45.548Z,80.00
2017-09-16T02:35:13.104Z,80.20
2017-09-16T02:37:40.661Z,79.80
2017-09-16T02:40:08.303Z,79.80
2017-09-16T02:42:35.880Z,80.90
2017-09-16T02:45:03.442Z,81.60
2017-09-16T02:47:31.063Z,82.10
2017-09-16T02:49:58.617Z,81.80
2017-09-16T02:52:26.190Z,81.20
2017-09-16T02:54:53.777Z,80.80
2017-09-16T02:57:21.346Z,80.50
2017-09-16T02:59:48.984Z,81.10
2017-09-16T03:02:16.574Z,80.40
2017-09-16T03:04:44.124Z,80.50
2017-09-16T03:07:11.738Z,81.50
2017-09-16T03:09:39.340Z,80.40
2017-09-16T03:12:06.899Z,79.70
2017-09-16T03:14:34.505Z,80.60
2017-09-16T03:17:02.839Z,83.20
2017-09-16T03:19:30.403Z,82.50
2017-09-16T03:21:58.018Z,81.80
2017-09-16T03:24:25.580Z,80.90
2017-09-16T03:26:53.165Z,80.60
2017-09-16T03:29:20.718Z,80.20
2017-09-16T03:31:48.314Z,80.10
2017-09-16T03:34:15.872Z,80.10
2017-09-16T03:36:43.479Z,80.00
2017-09-16T03:39:11.037Z,80.10
2017-09-16T03:41:39.357Z,80.30
2017-09-16T03:44:06.964Z,80.20
2017-09-16T03:46:35.290Z,80.30
2017-09-16T03:49:02.849Z,80.20
2017-09-16T03:51:30.441Z,80.40
2017-09-16T03:53:57.998Z,80.50
2017-09-16T03:56:25.539Z,80.30
2017-09-16T03:58:53.137Z,81.50
2017-09-16T04:01:33.384Z,83.80
2017-09-16T04:04:01.756Z,84.20
2017-09-16T04:06:29.338Z,84.10
2017-09-16T04:08:57.654Z,82.60
2017-09-16T04:11:25.246Z,82.60
2017-09-16T04:13:52.797Z,82.80
2017-09-16T04:16:20.397Z,81.70
2017-09-16T04:18:48.727Z,80.50
2017-09-16T04:21:17.082Z,80.60
2017-09-16T04:23:44.677Z,80.60
2017-09-16T04:26:12.236Z,80.40
2017-09-16T04:28:39.783Z,80.40
2017-09-16T04:31:07.386Z,80.20
2017-09-16T04:33:34.973Z,79.40
2017-09-16T04:36:02.529Z,80.40
2017-09-16T04:38:30.887Z,79.70
2017-09-16T04:40:59.329Z,81.10
2017-09-16T04:43:26.884Z,81.10
2017-09-16T04:45:54.469Z,82.10
2017-09-16T04:48:22.135Z,83.00
2017-09-16T04:50:49.696Z,82.30
2017-09-16T04:53:17.265Z,84.10
2017-09-16T04:55:44.865Z,83.80
2017-09-16T04:58:12.429Z,82.70
2017-09-16T05:00:40.037Z,81.80
2017-09-16T05:03:07.596Z,81.10
2017-09-16T05:05:35.145Z,80.60
2017-09-16T05:08:02.845Z,81.00
2017-09-16T05:10:31.219Z,80.20
2017-09-16T05:12:58.769Z,80.10
2017-09-16T05:15:26.333Z,80.60
2017-09-16T05:17:54.729Z,80.00
2017-09-16T05:20:23.052Z,81.20
2017-09-16T05:22:50.614Z,81.10
2017-09-16T05:25:18.206Z,81.40
2017-09-16T05:27:45.802Z,82.00
2017-09-16T05:30:13.362Z,82.10
2017-09-16T05:32:40.957Z,81.10
2017-09-16T05:35:08.550Z,80.70
2017-09-16T05:37:36.167Z,80.80
2017-09-16T05:40:03.732Z,81.80
2017-09-16T05:42:31.362Z,81.90
2017-09-16T05:44:58.936Z,81.80
2017-09-16T05:47:26.503Z,82.30
2017-09-16T05:49:54.112Z,82.30
2017-09-16T05:52:21.678Z,82.10
2017-09-16T05:54:49.255Z,82.20
2017-09-16T05:57:17.613Z,81.40
2017-09-16T05:59:45.164Z,81.40
2017-09-16T06:02:12.780Z,79.60
2017-09-16T06:04:40.341Z,79.50
2017-09-16T06:07:07.909Z,80.80
2017-09-16T06:09:35.519Z,81.60
2017-09-16T06:12:03.970Z,80.30
2017-09-16T06:14:31.569Z,80.30
2017-09-16T06:16:59.887Z,78.50
2017-09-16T06:19:27.542Z,78.50
2017-09-16T06:21:55.097Z,79.60
2017-09-16T06:24:22.662Z,81.40
2017-09-16T06:26:50.261Z,81.30
2017-09-16T06:29:17.878Z,81.10
2017-09-16T06:31:45.429Z,81.30
2017-09-16T06:34:13.761Z,82.40
2017-09-16T06:36:41.368Z,82.40
2017-09-16T06:39:09.699Z,80.90
2017-09-16T06:41:37.317Z,80.80
2017-09-16T06:44:04.874Z,81.20
2017-09-16T06:46:32.444Z,81.10
2017-09-16T06:49:00.041Z,81.00
2017-09-16T06:51:27.681Z,81.20
2017-09-16T06:53:55.237Z,81.50
2017-09-16T06:56:22.820Z,81.80
2017-09-16T06:58:50.384Z,81.70
2017-09-16T07:01:18.006Z,80.40
2017-09-16T07:03:45.566Z,80.30
2017-09-16T07:06:13.137Z,81.10
2017-09-16T07:08:40.737Z,81.30
2017-09-16T07:11:08.326Z,81.30
2017-09-16T07:13:36.702Z,78.70
2017-09-16T07:16:05.110Z,78.90
2017-09-16T07:18:32.744Z,78.70
2017-09-16T07:21:01.119Z,76.30
2017-09-16T07:23:28.706Z,76.30
2017-09-16T07:25:56.312Z,75.40
2017-09-16T07:28:23.937Z,75.80
2017-09-16T07:30:51.501Z,73.70
2017-09-16T07:33:19.073Z,74.80
2017-09-16T07:35:46.704Z,75.20
2017-09-16T07:38:14.266Z,74.20
2017-09-16T07:40:42.594Z,74.10
2017-09-16T07:43:10.239Z,74.10
2017-09-16T07:45:37.812Z,73.80
2017-09-16T07:48:05.371Z,72.90
2017-09-16T07:50:32.971Z,72.30
2017-09-16T07:53:01.327Z,73.80
2017-09-16T07:55:28.930Z,73.70
2017-09-16T07:57:56.507Z,72.00
2017-09-16T08:00:24.123Z,72.60
2017-09-16T08:02:52.472Z,71.40
2017-09-16T08:05:20.023Z,71.40
2017-09-16T08:07:47.670Z,71.70
2017-09-16T08:10:15.256Z,71.70
2017-09-16T08:12:42.831Z,71.90
2017-09-16T08:15:10.438Z,72.30
2017-09-16T08:17:38.002Z,71.00
2017-09-16T08:20:05.600Z,73.90
2017-09-16T08:22:33.217Z,73.20
2017-09-16T08:25:00.784Z,72.30
2017-09-16T08:27:28.382Z,72.40
2017-09-16T08:29:56.007Z,72.70
2017-09-16T08:32:23.566Z,72.70
2017-09-16T08:34:51.148Z,71.70
2017-09-16T08:37:18.751Z,71.90
2017-09-16T08:39:46.302Z,71.80
2017-09-16T08:42:13.933Z,71.70
2017-09-16T08:44:41.562Z,70.90
2017-09-16T08:47:09.893Z,71.20
2017-09-16T08:49:37.477Z,71.10
2017-09-16T08:52:05.093Z,71.30
2017-09-16T08:54:32.688Z,71.70
2017-09-16T08:57:00.254Z,70.20
2017-09-16T08:59:28.645Z,69.40
2017-09-16T09:01:57.077Z,68.80
2017-09-16T09:04:24.709Z,68.80
2017-09-16T09:06:52.282Z,69.80
2017-09-16T09:09:19.883Z,68.80
2017-09-16T09:11:47.461Z,67.10
2017-09-16T09:14:15.084Z,63.60
2017-09-16T09:16:42.699Z,62.40
2017-09-16T09:19:11.017Z,60.80
2017-09-16T09:21:38.568Z,60.70
2017-09-16T09:24:06.943Z,60.60
2017-09-16T09:26:34.505Z,60.60
2017-09-16T09:29:02.105Z,59.40
2017-09-16T09:31:29.723Z,57.80
2017-09-16T09:33:57.289Z,58.80
2017-09-16T09:36:24.866Z,58.30
2017-09-16T09:38:52.469Z,53.90
2017-09-16T09:41:20.108Z,55.50
2017-09-16T09:43:47.670Z,57.60
2017-09-16T09:46:15.244Z,54.80
2017-09-16T09:48:42.829Z,56.20
2017-09-16T09:51:11.149Z,53.70
2017-09-16T09:53:38.732Z,53.60
2017-09-16T09:56:06.332Z,53.40
2017-09-16T09:58:33.940Z,55.90
2017-09-16T10:01:01.555Z,55.90
2017-09-16T10:03:29.168Z,56.60
2017-09-16T10:05:56.777Z,57.60
2017-09-16T10:08:24.347Z,55.70
2017-09-16T10:10:51.994Z,53.20
2017-09-16T10:13:20.323Z,56.00
2017-09-16T10:15:48.043Z,53.80
2017-09-16T10:18:15.638Z,53.00
2017-09-16T10:20:43.210Z,55.90
2017-09-16T10:23:10.820Z,56.80
2017-09-16T10:25:38.510Z,57.80
2017-09-16T10:28:06.960Z,55.80
2017-09-16T10:30:34.565Z,54.20
2017-09-16T10:33:02.134Z,51.90
2017-09-16T10:35:29.786Z,51.60
2017-09-16T10:37:57.394Z,46.60
2017-09-16T10:40:24.941Z,46.10
2017-09-16T10:42:52.521Z,44.20
2017-09-16T10:45:21.000Z,42.30
2017-09-16T10:47:49.334Z,42.70
2017-09-16T10:50:16.921Z,42.60
2017-09-16T10:52:44.489Z,41.00
2017-09-16T10:55:12.087Z,42.60
2017-09-16T10:57:39.671Z,41.30
2017-09-16T11:00:07.275Z,42.40
2017-09-16T11:02:34.839Z,42.10
2017-09-16T11:05:03.175Z,42.30
2017-09-16T11:07:30.768Z,42.20
2017-09-16T11:09:58.354Z,40.40
2017-09-16T11:12:26.689Z,40.00
2017-09-16T11:14:54.299Z,39.90
2017-09-16T11:17:22.617Z,41.20
2017-09-16T11:19:50.232Z,41.20
2017-09-16T11:22:18.634Z,37.00
2017-09-16T11:24:46.187Z,37.10
2017-09-16T11:27:13.754Z,38.20
2017-09-16T11:29:41.374Z,35.90
2017-09-16T11:32:09.717Z,36.40
2017-09-16T11:34:37.300Z,36.30
2017-09-16T11:37:04.930Z,38.80
2017-09-16T11:39:32.569Z,39.50
2017-09-16T11:42:00.184Z,38.10
2017-09-16T11:44:27.747Z,33.00
2017-09-16T11:46:55.310Z,31.20
2017-09-16T11:49:22.904Z,32.50
2017-09-16T11:51:50.458Z,33.30
2017-09-16T11:54:18.778Z,32.70
2017-09-16T11:56:46.385Z,32.70
2017-09-16T11:59:13.929Z,33.70
2017-09-16T12:01:41.506Z,30.20
2017-09-16T12:04:09.884Z,38.30
2017-09-16T12:06:38.205Z,37.50
2017-09-16T12:09:05.757Z,37.50
2017-09-16T12:11:33.357Z,36.40
2017-09-16T12:14:00.932Z,36.60
2017-09-16T12:16:28.544Z,35.20
2017-09-16T12:18:56.144Z,37.30
2017-09-16T12:21:23.693Z,38.70
2017-09-16T12:23:51.293Z,39.40
2017-09-16T12:26:19.662Z,39.30
2017-09-16T12:28:47.239Z,39.30
2017-09-16T12:31:15.624Z,40.90
2017-09-16T12:33:43.195Z,40.90
2017-09-16T12:36:10.756Z,42.40
2017-09-16T12:38:39.143Z,42.70
2017-09-16T12:41:06.716Z,42.00
2017-09-16T12:43:34.320Z,42.00
2017-09-16T12:46:01.892Z,41.60
2017-09-16T12:48:30.285Z,40.20
2017-09-16T12:50:57.849Z,40.20
2017-09-16T12:53:25.426Z,38.10
2017-09-16T12:55:53.030Z,37.30
2017-09-16T12:58:20.598Z,36.10
2017-09-16T13:00:48.196Z,37.00
2017-09-16T13:03:15.783Z,37.20
2017-09-16T13:05:43.348Z,40.30
2017-09-16T13:08:10.984Z,42.50
2017-09-16T13:10:38.560Z,41.00
2017-09-16T13:13:06.124Z,42.20
2017-09-16T13:15:33.840Z,40.90
2017-09-16T13:18:02.169Z,41.10
2017-09-16T13:20:29.744Z,41.10
2017-09-16T13:22:57.355Z,42.40
2017-09-16T13:25:25.683Z,40.30
2017-09-16T13:27:53.234Z,40.20
2017-09-16T13:30:20.837Z,40.30
2017-09-16T13:32:49.171Z,43.10
2017-09-16T13:35:16.743Z,43.10
2017-09-16T13:37:44.353Z,42.60
2017-09-16T13:40:12.728Z,43.20
2017-09-16T13:42:41.119Z,42.70
2017-09-16T13:45:08.682Z,42.70
2017-09-16T13:47:36.255Z,42.40
2017-09-16T13:50:03.862Z,40.80
2017-09-16T13:52:31.425Z,41.30
2017-09-16T13:54:58.994Z,40.30
2017-09-16T13:57:26.586Z,40.00
2017-09-16T13:59:54.177Z,39.70
2017-09-16T14:02:21.739Z,41.00
2017-09-16T14:04:49.326Z,41.90
2017-09-16T14:07:16.929Z,40.90
2017-09-16T14:09:44.481Z,41.00
2017-09-16T14:12:12.119Z,40.30
2017-09-16T14:14:39.737Z,41.70
2017-09-16T14:17:07.301Z,42.30
2017-09-16T14:19:35.692Z,42.40
2017-09-16T14:22:03.305Z,42.30
2017-09-16T14:24:30.864Z,42.60
2017-09-16T14:26:59.268Z,42.50
2017-09-16T14:29:26.841Z,42.50
2017-09-16T14:31:54.397Z,43.50
2017-09-16T14:34:22.021Z,43.60
2017-09-16T14:36:50.353Z,43.70
2017-09-16T14:39:17.904Z,43.70
2017-09-16T14:41:45.616Z,46.40
2017-09-16T14:44:14.006Z,44.60
2017-09-16T14:46:42.341Z,45.90
2017-09-16T14:49:09.901Z,45.90
2017-09-16T14:51:37.513Z,44.80
2017-09-16T14:54:05.081Z,44.70
2017-09-16T14:56:32.666Z,46.00
2017-09-16T14:59:00.232Z,46.30
2017-09-16T15:01:27.807Z,46.00
2017-09-16T15:03:55.416Z,45.30
2017-09-16T15:06:23.037Z,44.90
2017-09-16T15:08:50.633Z,43.60
2017-09-16T15:11:18.212Z,43.90
2017-09-16T15:13:45.829Z,44.50
2017-09-16T15:16:13.459Z,45.00
2017-09-16T15:18:41.064Z,46.00
2017-09-16T15:21:09.397Z,46.10
2017-09-16T15:23:37.011Z,46.00
2017-09-16T15:26:05.379Z,46.40
2017-09-16T15:28:32.962Z,46.40
2017-09-16T15:31:00.597Z,46.50
2017-09-16T15:33:28.937Z,48.80
2017-09-16T15:35:56.508Z,46.20
2017-09-16T15:38:24.132Z,51.00
2017-09-16T15:40:51.690Z,52.80
2017-09-16T15:43:19.320Z,53.20
2017-09-16T15:45:47.658Z,55.20
2017-09-16T15:48:15.232Z,55.20
2017-09-16T15:50:42.864Z,56.00
2017-09-16T15:53:10.431Z,56.20
2017-09-16T15:55:38.375Z,56.70
2017-09-16T15:58:05.990Z,58.40
2017-09-16T16:00:33.604Z,60.10
2017-09-16T16:03:01.205Z,60.50
2017-09-16T16:05:28.806Z,61.70
2017-09-16T16:07:57.168Z,63.10
2017-09-16T16:10:25.639Z,65.00
2017-09-16T16:12:53.233Z,64.90
2017-09-16T16:15:21.570Z,68.30
2017-09-16T16:17:49.173Z,68.30
2017-09-16T16:20:17.494Z,70.30
2017-09-16T16:22:45.050Z,70.30
2017-09-16T16:25:12.673Z,70.30
2017-09-16T16:27:40.273Z,71.40
2017-09-16T16:30:07.861Z,71.40
2017-09-16T16:32:35.551Z,71.90
2017-09-16T16:35:03.176Z,70.70
2017-09-16T16:37:30.782Z,70.10
2017-09-16T16:39:58.589Z,70.70
2017-09-16T16:42:26.192Z,70.60
2017-09-16T16:44:54.537Z,70.90
2017-09-16T16:47:22.114Z,70.90
2017-09-16T16:49:49.705Z,70.60
2017-09-16T16:52:18.025Z,72.10
2017-09-16T16:54:45.578Z,72.10
2017-09-16T16:57:13.199Z,73.70
2017-09-16T16:59:41.528Z,73.80
2017-09-16T17:02:09.098Z,73.80
2017-09-16T17:04:36.690Z,74.80
2017-09-16T17:07:05.042Z,74.10
2017-09-16T17:09:32.637Z,74.10
2017-09-16T17:12:00.963Z,74.20
2017-09-16T17:14:28.517Z,74.10
2017-09-16T17:16:56.141Z,74.10
2017-09-16T17:19:24.466Z,75.00
2017-09-16T17:21:52.025Z,75.00
2017-09-16T17:24:19.622Z,75.20
2017-09-16T17:26:47.170Z,75.90
2017-09-16T17:29:14.794Z,76.60
2017-09-16T17:31:44.295Z,76.80
2017-09-16T17:34:11.878Z,76.00
2017-09-16T17:36:39.522Z,76.70
2017-09-16T17:39:07.088Z,76.50
2017-09-16T17:41:34.700Z,78.50
2017-09-16T17:44:03.115Z,79.50
2017-09-16T17:46:30.689Z,79.50
2017-09-16T17:48:58.277Z,79.70
2017-09-16T17:51:25.886Z,80.20
2017-09-16T17:53:53.498Z,80.50
2017-09-16T17:56:21.102Z,80.50
2017-09-16T17:58:48.658Z,79.00
2017-09-16T18:01:17.042Z,80.70
2017-09-16T18:03:44.621Z,80.70
2017-09-16T18:06:12.293Z,80.90
2017-09-16T18:08:39.858Z,81.00
2017-09-16T18:11:07.483Z,80.20
2017-09-16T18:13:35.081Z,81.00
2017-09-16T18:16:02.647Z,81.70
2017-09-16T18:18:30.265Z,79.10
2017-09-16T18:20:57.850Z,80.70
2017-09-16T18:23:25.434Z,81.00
2017-09-16T18:25:53.054Z,82.00
2017-09-16T18:28:20.689Z,78.70
2017-09-16T18:30:49.121Z,80.70
2017-09-16T18:33:16.689Z,80.50
2017-09-16T18:35:44.291Z,81.70
2017-09-16T18:38:11.931Z,82.40
2017-09-16T18:40:39.522Z,79.90
2017-09-16T18:43:07.924Z,81.70
2017-09-16T18:45:35.535Z,81.70
2017-09-16T18:48:03.145Z,82.50
2017-09-16T18:50:30.729Z,82.50
2017-09-16T18:52:58.337Z,81.60
2017-09-16T18:55:25.962Z,82.50
2017-09-16T18:57:53.569Z,82.00
2017-09-16T19:00:21.154Z,82.50
2017-09-16T19:02:48.765Z,82.90
2017-09-16T19:05:16.331Z,83.60
2017-09-16T19:07:43.946Z,83.10
2017-09-16T19:10:11.551Z,83.40
2017-09-16T19:12:39.106Z,83.20
2017-09-16T19:15:06.722Z,82.90
2017-09-16T19:17:34.288Z,82.20
2017-09-16T19:20:01.890Z,80.50
2017-09-16T19:22:29.454Z,82.60
2017-09-16T19:24:57.067Z,81.40
2017-09-16T19:27:25.394Z,79.80
2017-09-16T19:29:52.951Z,79.70
2017-09-16T19:32:20.567Z,82.10
2017-09-16T19:34:48.147Z,82.60
2017-09-16T19:37:15.779Z,82.70
2017-09-16T19:39:44.218Z,84.10
2017-09-16T19:42:11.778Z,84.10
2017-09-16T19:44:39.379Z,82.90
2017-09-16T19:47:06.988Z,83.90
2017-09-16T19:49:34.593Z,83.50
2017-09-16T19:52:02.932Z,84.70
2017-09-16T19:54:30.560Z,84.70
2017-09-16T19:56:58.205Z,85.60
2017-09-16T19:59:26.577Z,86.50
2017-09-16T20:01:54.951Z,85.80
2017-09-16T20:04:23.313Z,86.20
2017-09-16T20:06:51.715Z,85.70
2017-09-16T20:09:20.048Z,85.80
2017-09-16T20:11:47.687Z,85.80
2017-09-16T20:14:15.260Z,85.30
2017-09-16T20:16:42.826Z,85.20
2017-09-16T20:19:10.417Z,85.00
2017-09-16T20:21:38.822Z,85.80
2017-09-16T20:24:06.441Z,85.80
2017-09-16T20:26:34.011Z,83.90
2017-09-16T20:29:01.564Z,81.90
2017-09-16T20:31:29.192Z,82.80
2017-09-16T20:33:56.780Z,82.70
2017-09-16T20:36:24.347Z,82.10
2017-09-16T20:38:51.974Z,82.50
2017-09-16T20:41:19.551Z,82.90
2017-09-16T20:43:47.127Z,82.60
2017-09-16T20:46:14.735Z,82.50
2017-09-16T20:48:42.357Z,83.10
2017-09-16T20:51:09.927Z,83.10
2017-09-16T20:53:37.561Z,83.40
2017-09-16T20:56:05.134Z,84.80
2017-09-16T20:58:32.694Z,84.70
2017-09-16T21:01:00.289Z,85.00
2017-09-16T21:03:28.629Z,85.00
2017-09-16T21:05:56.236Z,85.00
2017-09-16T21:08:23.823Z,85.00
2017-09-16T21:10:51.405Z,84.80
2017-09-16T21:13:19.024Z,85.60
2017-09-16T21:15:46.621Z,85.80
2017-09-16T21:18:14.182Z,84.80
2017-09-16T21:20:41.821Z,84.80
2017-09-16T21:23:09.414Z,85.00
2017-09-16T21:25:37.022Z,86.10
2017-09-16T21:28:04.580Z,86.60
2017-09-16T21:30:32.941Z,86.10
2017-09-16T21:33:01.321Z,85.20
2017-09-16T21:35:28.880Z,85.10
2017-09-16T21:37:56.489Z,84.80
2017-09-16T21:40:24.061Z,84.70
2017-09-16T21:42:51.625Z,84.10
2017-09-16T21:45:19.247Z,84.20
2017-09-16T21:47:46.805Z,83.10
2017-09-16T21:50:15.124Z,84.20
2017-09-16T21:52:42.729Z,84.20
2017-09-16T21:55:11.069Z,83.60
2017-09-16T21:57:38.638Z,83.60
2017-09-16T22:00:06.250Z,84.40
2017-09-16T22:02:33.811Z,84.90
2017-09-16T22:05:01.427Z,84.70
2017-09-16T22:07:29.047Z,84.60
2017-09-16T22:09:56.606Z,84.30
2017-09-16T22:12:24.198Z,84.50
2017-09-16T22:14:51.768Z,84.70
2017-09-16T22:17:19.370Z,85.80
2017-09-16T22:19:46.976Z,85.10
2017-09-16T22:22:14.532Z,84.50
2017-09-16T22:24:42.087Z,84.60
2017-09-16T22:27:09.694Z,84.80
2017-09-16T22:29:38.013Z,85.70
2017-09-16T22:32:05.584Z,85.70
2017-09-16T22:34:33.954Z,86.50
2017-09-16T22:37:01.522Z,86.50
2017-09-16T22:39:29.146Z,85.20
2017-09-16T22:41:57.470Z,83.60
2017-09-16T22:44:25.044Z,83.70
2017-09-16T22:46:52.670Z,85.10
2017-09-16T22:49:20.229Z,85.80
2017-09-16T22:51:47.804Z,85.20
2017-09-16T22:54:15.429Z,85.20
2017-09-16T22:56:43.800Z,84.50
2017-09-16T22:59:12.178Z,84.40
2017-09-16T23:01:40.510Z,84.10
2017-09-16T23:04:08.097Z,84.00
2017-09-16T23:06:35.700Z,83.80
2017-09-16T23:09:03.282Z,83.70
2017-09-16T23:11:30.849Z,83.30
2017-09-16T23:13:58.494Z,83.50
2017-09-16T23:16:26.060Z,83.80
2017-09-16T23:18:53.608Z,84.30
2017-09-16T23:21:21.204Z,83.80
2017-09-16T23:23:48.806Z,83.60
2017-09-16T23:26:17.186Z,84.80
2017-09-16T23:28:45.525Z,85.10
2017-09-16T23:31:13.095Z,85.10
2017-09-16T23:33:40.723Z,85.20
2017-09-16T23:36:09.062Z,83.70
2017-09-16T23:38:37.409Z,84.60
2017-09-16T23:41:05.044Z,84.40
2017-09-16T23:43:32.610Z,84.20
2017-09-16T23:46:00.199Z,84.20
2017-09-16T23:48:27.830Z,86.50
2017-09-16T23:50:55.409Z,86.70
2017-09-16T23:53:22.964Z,87.40
2017-09-16T23:55:50.562Z,88.00
2017-09-16T23:58:18.890Z,85.60
